Pineville, MO (64856)

5:27 PM CDT on August 27, 2014 (GMT -0500)
Loch Lomond | Change Station
CLOSE
Current Station
Personal Weather Station
Location: Bella Vista, AR
Elevation: 1243 ft
Nearby Weather Stations
Active Advisory: Heat Advisory Active Notice: Public Information Statement

Elev 1243 ft 36.48 °N, 94.33 °W | Updated 26 minutes ago

Partly Cloudy
Partly Cloudy
92.8 °F
Feels Like 98 °F
N
0.0
Wind Variable Wind from SW
Gusts 0.0 mph

Today
High -- | Low -- °F
--% Chance of Precip.
Yesterday
High -- | Low -- °F
Precip. -- in
6:44 AM 7:52 PM
Waxing Crescent, 5% visible
Pressure 30.05 in
Visibility 10.0 miles
Clouds Few 6500 ft
Heat Index 98 °F
Dew Point 69 °F
Humidity 46%
Rainfall 0.00 in
Snow Depth Not available.
UV 3 out of 12
Pollen 10.90 out of 12
Air Quality Not available.
Flu Activity Not available.
METAR KVBT 272215Z AUTO 15009KT 10SM FEW065 35/18 A3005 RMK AO1

More Conditions Fewer Conditions

Pressure 30.05 in
Visibility 10.0 miles
Clouds Few 6500 ft
Heat Index 98 °F
Dew Point 69 °F
Humidity 46%
Rainfall 0.00 in
Snow Depth Not available.
UV 3 out of 12
Pollen 10.90 out of 12
Air Quality Not available.
Flu Activity Not available.
METAR KVBT 272215Z AUTO 15009KT 10SM FEW065 35/18 A3005 RMK AO1

More Conditions Fewer Conditions

10-Day Weather Forecast

Almanac

Astronomy

Aug. 27, 2014 Rise Set
Actual Time 6:44 AM CDT 7:52 PM CDT
Civil Twilight 6:18 AM CDT 8:19 PM CDT
Nautical Twilight 5:46 AM CDT 8:50 PM CDT
Astronomical Twilight 5:13 AM CDT 9:23 PM CDT
Moon 8:37 AM CDT 8:50 PM CDT
Length of Visible Light 14h 01m
Length of Day
13h 07m
Tomorrow will be 2m 12s shorter.
Waxing Crescent, 5% of the Moon is Illuminated
Today
Waxing Crescent
Sep 2
First Quarter
Sep 8
Full
Sep 15
Last Quarter
Sep 24
New

Today's Extremes

State Highs State Lows

Community

WunderPhotos

Upload Photos

1,747,806 photos uploaded!

Nearby

Snow Depth

Station Depth Elevation
No new snow has been reported.

Earthquake Activity

City Distance Mag. Time & Date
No recent earthquake activity has been reported nearby.
Minimum magnitude displayed is 2.5.

Coastal Water Temperatures

Place Temperature
No Stations Reporting

Nearby Weather Stations